createdAt,value
2022-08-05T00:01:27.880Z,21.03
2022-08-05T00:03:54.850Z,21.10
2022-08-05T00:06:30.792Z,21.09
2022-08-05T00:09:00.720Z,21.10
2022-08-05T00:11:34.533Z,21.10
2022-08-05T00:14:12.955Z,21.10
2022-08-05T00:16:52.369Z,21.05
2022-08-05T00:19:19.686Z,21.01
2022-08-05T00:21:48.684Z,21.01
2022-08-05T00:24:18.844Z,20.99
2022-08-05T00:26:52.191Z,20.99
2022-08-05T00:29:22.792Z,20.97
2022-08-05T00:32:10.081Z,20.95
2022-08-05T00:34:56.931Z,20.73
2022-08-05T00:37:27.217Z,20.87
2022-08-05T00:40:13.420Z,20.76
2022-08-05T00:42:44.243Z,20.70
2022-08-05T00:45:15.845Z,20.62
2022-08-05T00:47:56.640Z,20.44
2022-08-05T00:50:25.505Z,20.54
2022-08-05T00:52:53.395Z,20.47
2022-08-05T00:55:21.855Z,20.45
2022-08-05T00:57:58.127Z,20.42
2022-08-05T01:00:26.253Z,20.36
2022-08-05T01:02:53.078Z,20.14
2022-08-05T01:05:19.868Z,20.25
2022-08-05T01:08:41.080Z,20.23
2022-08-05T01:11:00.904Z,20.20
2022-08-05T01:13:58.642Z,20.20
2022-08-05T01:16:50.946Z,20.16
2022-08-05T01:19:30.083Z,20.11
2022-08-05T01:22:36.081Z,19.99
2022-08-05T01:25:41.148Z,20.03
2022-08-05T01:28:29.902Z,19.96
2022-08-05T01:31:07.454Z,19.74
2022-08-05T01:33:39.061Z,19.83
2022-08-05T01:36:16.158Z,19.80
2022-08-05T01:38:46.034Z,19.83
2022-08-05T01:41:18.146Z,19.59
2022-08-05T01:43:50.033Z,19.81
2022-08-05T01:46:41.333Z,19.80
2022-08-05T01:49:23.042Z,19.81
2022-08-05T01:51:54.947Z,19.79
2022-08-05T01:54:25.655Z,19.78
2022-08-05T01:58:13.082Z,19.77
2022-08-05T01:59:47.024Z,19.77
2022-08-05T02:02:16.039Z,19.75
2022-08-05T02:04:46.113Z,19.68
2022-08-05T02:07:21.928Z,19.67
2022-08-05T02:09:51.133Z,19.42
2022-08-05T02:12:44.820Z,19.58
2022-08-05T02:15:33.563Z,19.51
2022-08-05T02:18:31.907Z,19.52
2022-08-05T02:21:06.532Z,19.47
2022-08-05T02:23:44.919Z,19.42
2022-08-05T02:26:17.173Z,19.43
2022-08-05T02:28:46.371Z,19.39
2022-08-05T02:31:21.115Z,19.40
2022-08-05T02:33:57.245Z,19.37
2022-08-05T02:36:27.436Z,19.38
2022-08-05T02:38:56.787Z,19.42
2022-08-05T02:41:28.426Z,19.40
2022-08-05T02:44:12.189Z,19.45
2022-08-05T02:46:43.927Z,19.33
2022-08-05T02:49:21.826Z,19.22
2022-08-05T02:52:02.944Z,18.99
2022-08-05T02:54:35.687Z,18.81
2022-08-05T02:57:10.117Z,18.91
2022-08-05T02:59:55.504Z,18.83
2022-08-05T03:02:28.287Z,18.71
2022-08-05T03:04:57.416Z,18.68
2022-08-05T03:07:48.530Z,18.47
2022-08-05T03:10:15.593Z,18.39
2022-08-05T03:12:51.901Z,18.63
2022-08-05T03:15:19.092Z,18.75
2022-08-05T03:17:45.943Z,18.71
2022-08-05T03:20:13.382Z,18.75
2022-08-05T03:22:44.236Z,18.77
2022-08-05T03:26:03.765Z,18.78
2022-08-05T03:28:01.518Z,18.81
2022-08-05T03:30:34.082Z,18.85
2022-08-05T03:33:06.095Z,18.86
2022-08-05T03:35:33.868Z,18.74
2022-08-05T03:38:07.523Z,18.75
2022-08-05T03:40:34.225Z,18.78
2022-08-05T03:43:58.503Z,18.76
2022-08-05T03:45:57.129Z,18.77
2022-08-05T03:48:25.956Z,18.78
2022-08-05T03:52:38.910Z,18.58
2022-08-05T03:55:50.833Z,18.90
2022-08-05T03:57:35.135Z,18.96
2022-08-05T04:00:15.916Z,18.98
2022-08-05T04:02:57.872Z,19.14
2022-08-05T04:05:33.436Z,19.13
2022-08-05T04:08:03.596Z,19.14
2022-08-05T04:10:37.888Z,19.19
2022-08-05T04:13:07.235Z,19.15
2022-08-05T04:15:36.165Z,19.13
2022-08-05T04:18:08.018Z,19.09
2022-08-05T04:20:36.455Z,19.11
2022-08-05T04:23:03.017Z,19.13
2022-08-05T04:25:57.620Z,19.13
2022-08-05T04:28:17.710Z,19.08
2022-08-05T04:30:44.837Z,19.12
2022-08-05T04:33:12.114Z,19.04
2022-08-05T04:36:16.103Z,19.16
2022-08-05T04:38:39.471Z,19.06
2022-08-05T04:41:07.379Z,19.18
2022-08-05T04:43:36.344Z,19.21
2022-08-05T04:46:04.572Z,19.15
2022-08-05T04:48:31.873Z,19.27
2022-08-05T04:51:02.514Z,19.30
2022-08-05T04:53:33.392Z,19.27
2022-08-05T04:56:33.693Z,19.26
2022-08-05T04:58:49.033Z,18.92
2022-08-05T05:01:15.858Z,19.07
2022-08-05T05:04:02.322Z,19.06
2022-08-05T05:06:39.654Z,19.12
2022-08-05T05:09:17.466Z,19.19
2022-08-05T05:11:53.878Z,19.24
2022-08-05T05:14:27.708Z,19.28
2022-08-05T05:17:01.371Z,19.30
2022-08-05T05:19:36.976Z,19.27
2022-08-05T05:22:23.986Z,19.32
2022-08-05T05:24:58.465Z,19.32
2022-08-05T05:27:45.168Z,19.29
2022-08-05T05:30:15.634Z,19.28
2022-08-05T05:32:57.081Z,19.28
2022-08-05T05:35:29.122Z,19.29
2022-08-05T05:38:03.013Z,19.25
2022-08-05T05:40:32.093Z,19.29
2022-08-05T05:42:59.815Z,19.20
2022-08-05T05:45:29.173Z,19.10
2022-08-05T05:48:06.280Z,19.16
2022-08-05T05:50:43.820Z,19.33
2022-08-05T05:53:21.983Z,19.27
2022-08-05T05:55:52.219Z,19.23
2022-08-05T05:58:31.938Z,19.27
2022-08-05T06:01:12.051Z,19.19
2022-08-05T06:04:02.108Z,19.24
2022-08-05T06:06:33.017Z,19.13
2022-08-05T06:09:00.033Z,19.24
2022-08-05T06:11:26.592Z,19.23
2022-08-05T06:13:56.102Z,19.23
2022-08-05T06:16:30.697Z,19.19
2022-08-05T06:19:01.130Z,19.16
2022-08-05T06:21:36.514Z,19.13
2022-08-05T06:24:11.823Z,19.13
2022-08-05T06:26:51.558Z,19.05
2022-08-05T06:29:42.910Z,18.85
2022-08-05T06:32:21.095Z,18.87
2022-08-05T06:34:53.518Z,19.00
2022-08-05T06:37:57.507Z,18.92
2022-08-05T06:40:10.335Z,18.77
2022-08-05T06:42:37.626Z,18.68
2022-08-05T06:45:08.877Z,18.56
2022-08-05T06:48:37.162Z,18.43
2022-08-05T06:50:23.073Z,18.41
2022-08-05T06:52:58.787Z,18.40
2022-08-05T06:55:36.198Z,18.26
2022-08-05T06:58:20.594Z,18.39
2022-08-05T07:00:50.039Z,18.29
2022-08-05T07:03:17.013Z,18.18
2022-08-05T07:05:44.055Z,18.24
2022-08-05T07:08:12.781Z,18.28
2022-08-05T07:10:53.191Z,18.27
2022-08-05T07:13:57.817Z,18.23
2022-08-05T07:17:59.113Z,18.22
2022-08-05T07:22:28.559Z,18.16
2022-08-05T07:25:23.417Z,18.21
2022-08-05T07:27:58.852Z,18.23
2022-08-05T07:30:32.590Z,18.23
2022-08-05T07:33:01.073Z,18.21
2022-08-05T07:36:03.087Z,18.26
2022-08-05T07:38:32.250Z,18.27
2022-08-05T07:42:07.407Z,18.22
2022-08-05T07:43:56.886Z,18.12
2022-08-05T07:46:28.090Z,18.07
2022-08-05T07:49:02.172Z,18.14
2022-08-05T07:51:37.581Z,18.13
2022-08-05T07:54:08.324Z,18.03
2022-08-05T07:57:00.063Z,18.01
2022-08-05T07:59:31.114Z,18.00
2022-08-05T08:02:07.682Z,18.06
2022-08-05T08:04:42.016Z,18.05
2022-08-05T08:07:08.542Z,18.04
2022-08-05T08:09:35.303Z,18.02
2022-08-05T08:12:13.609Z,18.02
2022-08-05T08:14:47.016Z,18.02
2022-08-05T08:17:16.194Z,18.03
2022-08-05T08:20:20.996Z,18.05
2022-08-05T08:22:31.061Z,18.01
2022-08-05T08:25:03.262Z,18.00
2022-08-05T08:27:39.874Z,17.94
2022-08-05T08:30:29.414Z,17.88
2022-08-05T08:32:58.097Z,17.80
2022-08-05T08:35:35.262Z,17.68
2022-08-05T08:38:08.334Z,17.87
2022-08-05T08:40:39.393Z,17.91
2022-08-05T08:45:16.187Z,17.93
2022-08-05T08:45:54.991Z,17.95
2022-08-05T08:48:43.005Z,17.95
2022-08-05T08:52:01.683Z,17.94
2022-08-05T08:53:57.000Z,17.93
2022-08-05T08:56:27.025Z,17.87
2022-08-05T08:58:53.881Z,17.93
2022-08-05T09:01:20.815Z,17.96
2022-08-05T09:03:54.332Z,17.98
2022-08-05T09:06:29.614Z,18.00
2022-08-05T09:08:59.442Z,17.96
2022-08-05T09:11:51.071Z,18.05
2022-08-05T09:14:56.546Z,18.11
2022-08-05T09:17:05.638Z,18.07
2022-08-05T09:19:55.048Z,18.14
2022-08-05T09:22:31.185Z,18.21
2022-08-05T09:25:13.663Z,18.33
2022-08-05T09:28:04.890Z,18.36
2022-08-05T09:30:34.247Z,18.43
2022-08-05T09:33:04.977Z,18.51
2022-08-05T09:35:32.809Z,18.50
2022-08-05T09:38:16.439Z,18.56
2022-08-05T09:40:52.131Z,18.61
2022-08-05T09:43:46.169Z,18.68
2022-08-05T09:46:29.526Z,18.68
2022-08-05T09:49:07.832Z,18.66
2022-08-05T09:51:44.459Z,18.66
2022-08-05T09:54:16.124Z,18.67
2022-08-05T09:56:52.297Z,18.79
2022-08-05T09:59:24.099Z,18.90
2022-08-05T10:01:57.764Z,19.03
2022-08-05T10:04:35.926Z,19.12
2022-08-05T10:07:14.067Z,19.16
2022-08-05T10:10:04.101Z,19.27
2022-08-05T10:12:49.848Z,19.36
2022-08-05T10:15:21.627Z,19.39
2022-08-05T10:18:03.428Z,19.51
2022-08-05T10:20:32.058Z,19.59
2022-08-05T10:23:00.904Z,19.74
2022-08-05T10:25:27.784Z,19.89
2022-08-05T10:28:13.272Z,20.10
2022-08-05T10:32:49.685Z,20.29
2022-08-05T10:33:35.158Z,20.38
2022-08-05T10:36:04.479Z,20.45
2022-08-05T10:38:33.049Z,20.70
2022-08-05T10:41:23.409Z,20.91
2022-08-05T10:44:05.757Z,21.03
2022-08-05T10:46:43.566Z,21.27
2022-08-05T10:49:16.894Z,21.38
2022-08-05T10:51:57.519Z,21.62
2022-08-05T10:54:56.363Z,21.74
2022-08-05T10:57:29.496Z,21.89
2022-08-05T11:00:20.665Z,21.88
2022-08-05T11:03:23.857Z,22.06
2022-08-05T11:06:15.250Z,22.11
2022-08-05T11:09:18.703Z,22.22
2022-08-05T11:11:59.210Z,22.51
2022-08-05T11:18:00.484Z,23.05
2022-08-05T11:20:43.745Z,23.41
2022-08-05T11:23:33.239Z,23.85
2022-08-05T11:26:29.154Z,24.00
2022-08-05T11:29:12.788Z,24.05
2022-08-05T11:31:58.204Z,23.86
2022-08-05T11:34:57.255Z,24.29
2022-08-05T11:38:29.410Z,24.35
2022-08-05T11:41:34.170Z,24.42
2022-08-05T11:44:04.925Z,24.67
2022-08-05T11:47:10.314Z,24.88
2022-08-05T11:49:27.831Z,25.24
2022-08-05T11:51:54.710Z,25.51
2022-08-05T11:54:33.954Z,25.48
2022-08-05T11:57:08.162Z,25.34
2022-08-05T11:59:49.712Z,25.24
2022-08-05T12:02:23.884Z,25.07
2022-08-05T12:04:59.397Z,24.99
2022-08-05T12:08:03.554Z,25.02
2022-08-05T12:10:19.586Z,25.06
2022-08-05T12:12:58.455Z,24.97
2022-08-05T12:15:35.971Z,25.08
2022-08-05T12:18:10.766Z,25.27
2022-08-05T12:20:39.107Z,25.30
2022-08-05T12:23:12.017Z,25.51
2022-08-05T12:25:56.809Z,25.75
2022-08-05T12:28:37.964Z,25.96
2022-08-05T12:31:05.607Z,26.13
2022-08-05T12:33:36.787Z,26.01
2022-08-05T12:36:07.900Z,25.45
2022-08-05T12:38:37.853Z,25.45
2022-08-05T12:41:13.397Z,25.56
2022-08-05T12:43:55.692Z,25.48
2022-08-05T12:46:32.848Z,25.44
2022-08-05T12:49:14.578Z,25.38
2022-08-05T12:52:13.825Z,25.23
2022-08-05T12:54:37.088Z,25.23
2022-08-05T12:57:09.665Z,25.35
2022-08-05T13:01:56.979Z,25.42
2022-08-05T13:02:36.062Z,25.65
2022-08-05T13:05:06.353Z,25.31
2022-08-05T13:07:59.791Z,25.09
2022-08-05T13:10:20.483Z,25.08
2022-08-05T13:12:57.155Z,25.22
2022-08-05T13:15:41.680Z,25.15
2022-08-05T13:18:20.057Z,25.03
2022-08-05T13:20:49.218Z,24.86
2022-08-05T13:23:18.270Z,24.41
2022-08-05T13:25:52.663Z,24.18
2022-08-05T13:28:25.553Z,23.85
2022-08-05T13:30:53.342Z,23.52
2022-08-05T13:34:21.749Z,23.41
2022-08-05T13:36:09.167Z,23.39
2022-08-05T13:38:42.401Z,23.25
2022-08-05T13:41:10.908Z,23.16
2022-08-05T13:43:44.093Z,23.05
2022-08-05T13:46:12.875Z,23.07
2022-08-05T13:49:00.331Z,22.68
2022-08-05T13:51:36.504Z,22.78
2022-08-05T13:54:03.512Z,22.78
2022-08-05T13:56:39.519Z,22.72
2022-08-05T13:59:19.484Z,22.77
2022-08-05T14:01:56.503Z,22.68
2022-08-05T14:04:49.660Z,22.61
2022-08-05T14:07:56.493Z,22.74
2022-08-05T14:10:04.510Z,22.67
2022-08-05T14:12:35.499Z,22.37
2022-08-05T14:15:05.877Z,22.67
2022-08-05T14:17:48.541Z,22.69
2022-08-05T14:20:17.651Z,22.77
2022-08-05T14:22:49.880Z,22.77
2022-08-05T14:25:21.739Z,22.80
2022-08-05T14:27:50.846Z,22.78
2022-08-05T14:30:20.388Z,22.90
2022-08-05T14:32:48.772Z,22.91
2022-08-05T14:35:16.156Z,22.95
2022-08-05T14:37:52.192Z,22.94
2022-08-05T14:40:21.747Z,23.01
2022-08-05T14:42:51.187Z,23.07
2022-08-05T14:45:18.417Z,23.00
2022-08-05T14:48:03.805Z,23.12
2022-08-05T14:50:31.644Z,23.21
2022-08-05T14:52:59.599Z,23.24
2022-08-05T14:55:28.728Z,23.30
2022-08-05T14:58:11.418Z,23.26
2022-08-05T15:00:39.775Z,23.39
2022-08-05T15:03:25.700Z,23.37
2022-08-05T15:06:07.757Z,23.42
2022-08-05T15:08:59.315Z,23.42
2022-08-05T15:11:51.573Z,23.47
2022-08-05T15:14:11.945Z,23.38
2022-08-05T15:16:58.463Z,23.34
2022-08-05T15:19:26.103Z,23.42
2022-08-05T15:21:52.692Z,23.55
2022-08-05T15:24:19.201Z,23.56
2022-08-05T15:26:46.630Z,23.63
2022-08-05T15:29:15.189Z,23.63
2022-08-05T15:31:41.757Z,23.67
2022-08-05T15:34:31.578Z,23.86
2022-08-05T15:36:54.720Z,23.90
2022-08-05T15:41:03.338Z,24.13
2022-08-05T15:42:53.514Z,24.27
2022-08-05T15:44:55.002Z,24.40
2022-08-05T15:47:22.558Z,24.59
2022-08-05T15:49:58.663Z,24.37
2022-08-05T15:52:52.664Z,24.26
2022-08-05T15:55:15.451Z,24.10
2022-08-05T15:57:43.725Z,23.82
2022-08-05T16:00:12.129Z,23.88
2022-08-05T16:02:39.023Z,23.69
2022-08-05T16:05:09.695Z,23.60
2022-08-05T16:07:38.026Z,23.56
2022-08-05T16:10:12.951Z,23.51
2022-08-05T16:12:39.904Z,23.23
2022-08-05T16:15:06.770Z,23.21
2022-08-05T16:17:36.128Z,23.32
2022-08-05T16:20:11.226Z,23.13
2022-08-05T16:22:38.776Z,23.25
2022-08-05T16:25:08.170Z,23.23
2022-08-05T16:27:59.791Z,22.96
2022-08-05T16:30:26.686Z,23.00
2022-08-05T16:32:55.800Z,22.94
2022-08-05T16:35:27.747Z,22.97
2022-08-05T16:38:15.603Z,22.92
2022-08-05T16:40:42.176Z,22.87
2022-08-05T16:43:16.473Z,22.97
2022-08-05T16:46:05.101Z,22.97
2022-08-05T16:48:33.431Z,22.99
2022-08-05T16:51:00.660Z,22.98
2022-08-05T16:54:02.055Z,23.11
2022-08-05T16:56:13.629Z,23.16
2022-08-05T16:58:40.780Z,23.16
2022-08-05T17:01:09.376Z,23.26
2022-08-05T17:03:37.285Z,23.30
2022-08-05T17:06:05.774Z,23.29
2022-08-05T17:08:52.059Z,23.32
2022-08-05T17:11:20.446Z,23.32
2022-08-05T17:13:50.815Z,23.20
2022-08-05T17:16:32.833Z,23.17
2022-08-05T17:19:00.833Z,23.03
2022-08-05T17:21:35.421Z,22.97
2022-08-05T17:24:19.634Z,22.98
2022-08-05T17:26:50.777Z,22.80
2022-08-05T17:29:17.311Z,22.77
2022-08-05T17:31:58.206Z,22.78
2022-08-05T17:34:29.812Z,22.67
2022-08-05T17:36:58.421Z,22.51
2022-08-05T17:39:33.223Z,22.57
2022-08-05T17:42:19.608Z,22.47
2022-08-05T17:44:50.289Z,22.42
2022-08-05T17:47:21.781Z,22.29
2022-08-05T17:49:52.095Z,22.21
2022-08-05T17:52:29.977Z,22.17
2022-08-05T17:54:56.473Z,22.13
2022-08-05T17:57:23.192Z,22.00
2022-08-05T18:00:04.872Z,22.03
2022-08-05T18:02:34.141Z,22.06
2022-08-05T18:05:03.152Z,22.00
2022-08-05T18:07:41.414Z,21.93
2022-08-05T18:10:14.033Z,21.75
2022-08-05T18:12:47.463Z,21.76
2022-08-05T18:15:14.132Z,21.72
2022-08-05T18:18:00.596Z,21.62
2022-08-05T18:20:29.503Z,21.50
2022-08-05T18:22:58.713Z,21.42
2022-08-05T18:25:36.820Z,21.31
2022-08-05T18:28:06.164Z,21.24
2022-08-05T18:30:33.585Z,21.12
2022-08-05T18:33:01.228Z,21.14
2022-08-05T18:36:01.269Z,21.02
2022-08-05T18:38:16.411Z,20.95
2022-08-05T18:41:53.902Z,20.87
2022-08-05T18:43:38.383Z,20.82
2022-08-05T18:46:10.140Z,20.69
2022-08-05T18:48:41.695Z,20.68
2022-08-05T18:52:04.972Z,20.65
2022-08-05T18:54:14.212Z,20.45
2022-08-05T18:56:40.789Z,20.40
2022-08-05T18:59:43.523Z,20.37
2022-08-05T19:01:56.789Z,20.32
2022-08-05T19:04:24.806Z,20.18
2022-08-05T19:06:51.665Z,20.04
2022-08-05T19:09:21.085Z,20.03
2022-08-05T19:12:00.113Z,19.99
2022-08-05T19:14:59.171Z,19.93
2022-08-05T19:17:15.223Z,19.68
2022-08-05T19:19:47.026Z,19.79
2022-08-05T19:22:17.348Z,19.75
2022-08-05T19:24:54.500Z,19.54
2022-08-05T19:27:22.979Z,19.59
2022-08-05T19:29:49.967Z,19.45
2022-08-05T19:32:16.531Z,19.43
2022-08-05T19:34:55.076Z,19.40
2022-08-05T19:37:35.097Z,19.32
2022-08-05T19:40:12.686Z,19.26
2022-08-05T19:42:41.833Z,19.22
2022-08-05T19:45:27.458Z,19.13
2022-08-05T19:47:59.847Z,19.10
2022-08-05T19:50:26.566Z,19.02
2022-08-05T19:52:53.051Z,18.99
2022-08-05T19:56:14.545Z,18.54
2022-08-05T19:58:28.700Z,18.81
2022-08-05T20:00:53.784Z,18.79
2022-08-05T20:03:20.330Z,18.77
2022-08-05T20:05:51.108Z,18.72
2022-08-05T20:08:18.547Z,18.71
2022-08-05T20:10:45.118Z,18.67
2022-08-05T20:13:16.888Z,18.58
2022-08-05T20:15:51.961Z,18.58
2022-08-05T20:18:33.649Z,18.54
2022-08-05T20:21:04.753Z,18.48
2022-08-05T20:23:39.226Z,18.44
2022-08-05T20:26:17.349Z,18.36
2022-08-05T20:28:53.957Z,18.32
2022-08-05T20:31:28.748Z,18.28
2022-08-05T20:34:10.593Z,18.21
2022-08-05T20:36:39.005Z,18.16
2022-08-05T20:39:12.867Z,18.06
2022-08-05T20:41:43.888Z,17.99
2022-08-05T20:44:16.928Z,17.93
2022-08-05T20:46:44.997Z,17.87
2022-08-05T20:49:12.428Z,17.82
2022-08-05T20:51:39.123Z,17.80
2022-08-05T20:54:06.439Z,17.71
2022-08-05T20:56:42.476Z,17.67
2022-08-05T20:59:14.111Z,17.66
2022-08-05T21:01:45.775Z,17.63
2022-08-05T21:04:12.419Z,17.61
2022-08-05T21:06:45.236Z,17.48
2022-08-05T21:09:14.350Z,17.57
2022-08-05T21:12:09.035Z,17.53
2022-08-05T21:14:34.595Z,17.38
2022-08-05T21:17:01.700Z,17.24
2022-08-05T21:19:29.659Z,17.30
2022-08-05T21:22:14.645Z,17.24
2022-08-05T21:24:44.366Z,17.21
2022-08-05T21:27:15.261Z,17.15
2022-08-05T21:29:43.235Z,17.15
2022-08-05T21:32:19.895Z,17.13
2022-08-05T21:34:55.936Z,17.10
2022-08-05T21:37:33.806Z,17.04
2022-08-05T21:40:05.834Z,17.05
2022-08-05T21:42:44.179Z,17.01
2022-08-05T21:45:24.090Z,16.98
2022-08-05T21:47:56.355Z,16.93
2022-08-05T21:50:25.946Z,16.84
2022-08-05T21:52:52.599Z,16.79
2022-08-05T21:55:23.724Z,16.73
2022-08-05T21:58:06.556Z,16.64
2022-08-05T22:00:33.127Z,16.67
2022-08-05T22:03:00.544Z,16.61
2022-08-05T22:05:27.457Z,16.55
2022-08-05T22:07:59.581Z,16.47
2022-08-05T22:10:29.055Z,16.36
2022-08-05T22:12:58.875Z,16.37
2022-08-05T22:16:01.660Z,16.35
2022-08-05T22:18:14.500Z,16.32
2022-08-05T22:20:41.815Z,16.25
2022-08-05T22:24:01.968Z,16.27
2022-08-05T22:26:34.324Z,16.15
2022-08-05T22:29:02.003Z,16.09
2022-08-05T22:31:30.015Z,15.99
2022-08-05T22:34:01.079Z,15.80
2022-08-05T22:36:29.073Z,15.91
2022-08-05T22:38:55.877Z,15.87
2022-08-05T22:41:26.395Z,15.81
2022-08-05T22:44:12.117Z,15.69
2022-08-05T22:46:40.712Z,15.66
2022-08-05T22:49:12.161Z,15.62
2022-08-05T22:52:06.444Z,15.56
2022-08-05T22:54:36.904Z,15.55
2022-08-05T22:57:04.984Z,15.52
2022-08-05T22:59:42.978Z,15.50
2022-08-05T23:02:13.717Z,15.44
2022-08-05T23:04:43.637Z,15.44
2022-08-05T23:07:18.550Z,15.40
2022-08-05T23:09:53.482Z,15.14
2022-08-05T23:12:28.654Z,15.38
2022-08-05T23:14:55.452Z,15.34
2022-08-05T23:17:34.968Z,15.37
2022-08-05T23:20:16.522Z,15.35
2022-08-05T23:22:47.337Z,15.34
2022-08-05T23:25:51.131Z,15.24
2022-08-05T23:28:07.032Z,15.31
2022-08-05T23:30:40.560Z,15.31
2022-08-05T23:33:21.880Z,15.32
2022-08-05T23:35:52.678Z,15.17
2022-08-05T23:38:22.854Z,15.20
2022-08-05T23:40:50.627Z,15.17
2022-08-05T23:43:25.648Z,15.15
2022-08-05T23:46:05.189Z,15.03
2022-08-05T23:48:47.039Z,15.10
2022-08-05T23:51:28.289Z,14.98
2022-08-05T23:54:01.009Z,14.91
2022-08-05T23:56:27.862Z,14.70
2022-08-05T23:58:54.373Z,14.74
